sensor_id;sensor_type;location;lat;lon;timestamp;temperature;humidity
73572;DHT22;61854;48.510;-2.770;2023-04-24T00:00:35;10.00;91.50
73572;DHT22;61854;48.510;-2.770;2023-04-24T00:03:01;10.00;91.80
73572;DHT22;61854;48.510;-2.770;2023-04-24T00:05:28;10.00;91.80
73572;DHT22;61854;48.510;-2.770;2023-04-24T00:07:53;10.00;91.80
73572;DHT22;61854;48.510;-2.770;2023-04-24T00:10:20;10.10;91.70
73572;DHT22;61854;48.510;-2.770;2023-04-24T00:12:46;10.10;91.70
73572;DHT22;61854;48.510;-2.770;2023-04-24T00:15:11;10.10;91.60
73572;DHT22;61854;48.510;-2.770;2023-04-24T00:17:37;10.20;91.50
73572;DHT22;61854;48.510;-2.770;2023-04-24T00:20:02;10.20;91.40
73572;DHT22;61854;48.510;-2.770;2023-04-24T00:22:30;10.20;91.20
73572;DHT22;61854;48.510;-2.770;2023-04-24T00:24:56;10.20;91.10
73572;DHT22;61854;48.510;-2.770;2023-04-24T00:27:22;10.30;91.20
73572;DHT22;61854;48.510;-2.770;2023-04-24T00:29:47;10.30;91.50
73572;DHT22;61854;48.510;-2.770;2023-04-24T00:32:13;10.30;91.00
73572;DHT22;61854;48.510;-2.770;2023-04-24T00:34:39;10.30;90.90
73572;DHT22;61854;48.510;-2.770;2023-04-24T00:37:04;10.30;90.80
73572;DHT22;61854;48.510;-2.770;2023-04-24T00:39:30;10.30;90.70
73572;DHT22;61854;48.510;-2.770;2023-04-24T00:41:56;10.40;90.60
73572;DHT22;61854;48.510;-2.770;2023-04-24T00:44:22;10.30;90.70
73572;DHT22;61854;48.510;-2.770;2023-04-24T00:46:48;10.40;90.60
73572;DHT22;61854;48.510;-2.770;2023-04-24T00:49:26;10.40;90.60
73572;DHT22;61854;48.510;-2.770;2023-04-24T00:51:52;10.40;90.60
73572;DHT22;61854;48.510;-2.770;2023-04-24T00:54:19;10.40;90.50
73572;DHT22;61854;48.510;-2.770;2023-04-24T00:56:44;10.40;90.60
73572;DHT22;61854;48.510;-2.770;2023-04-24T00:59:14;10.40;90.60
73572;DHT22;61854;48.510;-2.770;2023-04-24T01:01:41;10.40;90.60
73572;DHT22;61854;48.510;-2.770;2023-04-24T01:04:07;10.40;90.60
73572;DHT22;61854;48.510;-2.770;2023-04-24T01:06:33;10.40;90.60
73572;DHT22;61854;48.510;-2.770;2023-04-24T01:08:59;10.40;90.70
73572;DHT22;61854;48.510;-2.770;2023-04-24T01:11:25;10.40;90.70
73572;DHT22;61854;48.510;-2.770;2023-04-24T01:13:51;10.40;90.60
73572;DHT22;61854;48.510;-2.770;2023-04-24T01:16:17;10.40;90.70
73572;DHT22;61854;48.510;-2.770;2023-04-24T01:18:43;10.40;90.80
73572;DHT22;61854;48.510;-2.770;2023-04-24T01:21:09;10.30;90.80
73572;DHT22;61854;48.510;-2.770;2023-04-24T01:23:34;10.30;90.90
73572;DHT22;61854;48.510;-2.770;2023-04-24T01:26:00;10.30;90.90
73572;DHT22;61854;48.510;-2.770;2023-04-24T01:28:26;10.20;91.20
73572;DHT22;61854;48.510;-2.770;2023-04-24T01:30:52;10.20;91.10
73572;DHT22;61854;48.510;-2.770;2023-04-24T01:33:20;10.20;91.20
73572;DHT22;61854;48.510;-2.770;2023-04-24T01:35:46;10.20;91.40
73572;DHT22;61854;48.510;-2.770;2023-04-24T01:38:11;10.10;91.70
73572;DHT22;61854;48.510;-2.770;2023-04-24T01:40:37;10.10;91.80
73572;DHT22;61854;48.510;-2.770;2023-04-24T01:43:03;10.00;91.90
73572;DHT22;61854;48.510;-2.770;2023-04-24T01:45:28;9.90;92.00
73572;DHT22;61854;48.510;-2.770;2023-04-24T01:47:54;10.00;92.30
73572;DHT22;61854;48.510;-2.770;2023-04-24T01:50:20;9.90;92.50
73572;DHT22;61854;48.510;-2.770;2023-04-24T01:52:45;9.80;92.60
73572;DHT22;61854;48.510;-2.770;2023-04-24T01:55:11;9.70;92.60
73572;DHT22;61854;48.510;-2.770;2023-04-24T01:57:36;9.70;92.70
73572;DHT22;61854;48.510;-2.770;2023-04-24T02:00:03;9.60;93.00
73572;DHT22;61854;48.510;-2.770;2023-04-24T02:02:32;9.60;93.20
73572;DHT22;61854;48.510;-2.770;2023-04-24T02:04:57;9.60;93.30
73572;DHT22;61854;48.510;-2.770;2023-04-24T02:07:23;9.50;93.50
73572;DHT22;61854;48.510;-2.770;2023-04-24T02:09:48;9.50;93.60
73572;DHT22;61854;48.510;-2.770;2023-04-24T02:12:14;9.50;93.70
73572;DHT22;61854;48.510;-2.770;2023-04-24T02:14:40;9.50;93.80
73572;DHT22;61854;48.510;-2.770;2023-04-24T02:17:05;9.50;93.80
73572;DHT22;61854;48.510;-2.770;2023-04-24T02:19:31;9.60;93.80
73572;DHT22;61854;48.510;-2.770;2023-04-24T02:21:57;9.60;93.90
73572;DHT22;61854;48.510;-2.770;2023-04-24T02:24:22;9.60;93.80
73572;DHT22;61854;48.510;-2.770;2023-04-24T02:26:48;9.60;93.70
73572;DHT22;61854;48.510;-2.770;2023-04-24T02:29:13;9.50;93.70
73572;DHT22;61854;48.510;-2.770;2023-04-24T02:31:39;9.50;93.80
73572;DHT22;61854;48.510;-2.770;2023-04-24T02:34:05;9.40;93.90
73572;DHT22;61854;48.510;-2.770;2023-04-24T02:36:31;9.40;94.10
73572;DHT22;61854;48.510;-2.770;2023-04-24T02:38:56;9.30;94.20
73572;DHT22;61854;48.510;-2.770;2023-04-24T02:41:22;9.40;94.40
73572;DHT22;61854;48.510;-2.770;2023-04-24T02:43:47;9.30;94.40
73572;DHT22;61854;48.510;-2.770;2023-04-24T02:46:13;9.30;94.50
73572;DHT22;61854;48.510;-2.770;2023-04-24T02:48:38;9.30;94.60
73572;DHT22;61854;48.510;-2.770;2023-04-24T02:51:04;9.30;94.60
73572;DHT22;61854;48.510;-2.770;2023-04-24T02:53:30;9.30;94.60
73572;DHT22;61854;48.510;-2.770;2023-04-24T02:55:56;9.30;94.70
73572;DHT22;61854;48.510;-2.770;2023-04-24T02:58:21;9.20;94.70
73572;DHT22;61854;48.510;-2.770;2023-04-24T03:00:47;9.20;94.80
73572;DHT22;61854;48.510;-2.770;2023-04-24T03:03:13;9.20;94.80
73572;DHT22;61854;48.510;-2.770;2023-04-24T03:05:38;9.20;94.80
73572;DHT22;61854;48.510;-2.770;2023-04-24T03:08:04;9.20;94.80
73572;DHT22;61854;48.510;-2.770;2023-04-24T03:10:30;9.20;94.70
73572;DHT22;61854;48.510;-2.770;2023-04-24T03:12:55;9.20;94.70
73572;DHT22;61854;48.510;-2.770;2023-04-24T03:15:21;9.20;94.70
73572;DHT22;61854;48.510;-2.770;2023-04-24T03:17:46;9.20;94.70
73572;DHT22;61854;48.510;-2.770;2023-04-24T03:20:12;9.10;94.70
73572;DHT22;61854;48.510;-2.770;2023-04-24T03:22:38;9.10;94.80
73572;DHT22;61854;48.510;-2.770;2023-04-24T03:25:03;9.00;94.80
73572;DHT22;61854;48.510;-2.770;2023-04-24T03:27:29;9.00;95.00
73572;DHT22;61854;48.510;-2.770;2023-04-24T03:29:55;9.00;95.10
73572;DHT22;61854;48.510;-2.770;2023-04-24T03:32:21;8.90;95.20
73572;DHT22;61854;48.510;-2.770;2023-04-24T03:34:50;8.90;95.30
73572;DHT22;61854;48.510;-2.770;2023-04-24T03:37:16;8.80;95.30
73572;DHT22;61854;48.510;-2.770;2023-04-24T03:39:42;8.80;95.40
73572;DHT22;61854;48.510;-2.770;2023-04-24T03:42:07;8.70;95.30
73572;DHT22;61854;48.510;-2.770;2023-04-24T03:44:34;8.70;95.30
73572;DHT22;61854;48.510;-2.770;2023-04-24T03:46:59;8.70;95.40
73572;DHT22;61854;48.510;-2.770;2023-04-24T03:49:25;8.70;95.50
73572;DHT22;61854;48.510;-2.770;2023-04-24T03:51:51;8.70;95.40
73572;DHT22;61854;48.510;-2.770;2023-04-24T03:54:20;8.60;95.40
73572;DHT22;61854;48.510;-2.770;2023-04-24T03:56:46;8.60;95.40
73572;DHT22;61854;48.510;-2.770;2023-04-24T03:59:11;8.60;95.40
73572;DHT22;61854;48.510;-2.770;2023-04-24T04:01:37;8.60;95.50
73572;DHT22;61854;48.510;-2.770;2023-04-24T04:04:06;8.50;95.60
73572;DHT22;61854;48.510;-2.770;2023-04-24T04:06:33;8.50;95.70
73572;DHT22;61854;48.510;-2.770;2023-04-24T04:08:59;8.50;95.70
73572;DHT22;61854;48.510;-2.770;2023-04-24T04:11:25;8.40;95.80
73572;DHT22;61854;48.510;-2.770;2023-04-24T04:13:50;8.40;95.80
73572;DHT22;61854;48.510;-2.770;2023-04-24T04:16:16;8.40;95.70
73572;DHT22;61854;48.510;-2.770;2023-04-24T04:18:44;8.30;95.70
73572;DHT22;61854;48.510;-2.770;2023-04-24T04:21:10;8.30;95.70
73572;DHT22;61854;48.510;-2.770;2023-04-24T04:23:36;8.30;95.80
73572;DHT22;61854;48.510;-2.770;2023-04-24T04:26:02;8.30;95.80
73572;DHT22;61854;48.510;-2.770;2023-04-24T04:28:28;8.30;95.80
73572;DHT22;61854;48.510;-2.770;2023-04-24T04:30:56;8.20;95.80
73572;DHT22;61854;48.510;-2.770;2023-04-24T04:33:23;8.20;95.90
73572;DHT22;61854;48.510;-2.770;2023-04-24T04:35:48;8.20;95.90
73572;DHT22;61854;48.510;-2.770;2023-04-24T04:38:15;8.20;95.90
73572;DHT22;61854;48.510;-2.770;2023-04-24T04:40:40;8.10;96.00
73572;DHT22;61854;48.510;-2.770;2023-04-24T04:43:06;8.10;96.00
73572;DHT22;61854;48.510;-2.770;2023-04-24T04:45:32;8.10;96.00
73572;DHT22;61854;48.510;-2.770;2023-04-24T04:47:58;8.10;96.00
73572;DHT22;61854;48.510;-2.770;2023-04-24T04:50:26;8.10;95.90
73572;DHT22;61854;48.510;-2.770;2023-04-24T04:52:52;8.10;96.00
73572;DHT22;61854;48.510;-2.770;2023-04-24T04:55:17;8.00;96.00
73572;DHT22;61854;48.510;-2.770;2023-04-24T04:57:45;8.00;96.00
73572;DHT22;61854;48.510;-2.770;2023-04-24T05:00:11;8.00;96.10
73572;DHT22;61854;48.510;-2.770;2023-04-24T05:02:37;8.00;96.10
73572;DHT22;61854;48.510;-2.770;2023-04-24T05:05:02;8.00;96.10
73572;DHT22;61854;48.510;-2.770;2023-04-24T05:07:28;8.00;96.10
73572;DHT22;61854;48.510;-2.770;2023-04-24T05:09:54;8.00;96.20
73572;DHT22;61854;48.510;-2.770;2023-04-24T05:12:19;7.90;96.20
73572;DHT22;61854;48.510;-2.770;2023-04-24T05:14:45;8.00;96.50
73572;DHT22;61854;48.510;-2.770;2023-04-24T05:17:10;8.00;96.50
73572;DHT22;61854;48.510;-2.770;2023-04-24T05:19:36;8.00;96.60
73572;DHT22;61854;48.510;-2.770;2023-04-24T05:22:03;8.00;96.80
73572;DHT22;61854;48.510;-2.770;2023-04-24T05:24:32;8.00;96.80
73572;DHT22;61854;48.510;-2.770;2023-04-24T05:26:58;8.10;97.00
73572;DHT22;61854;48.510;-2.770;2023-04-24T05:29:23;8.20;97.20
73572;DHT22;61854;48.510;-2.770;2023-04-24T05:31:50;8.20;97.20
73572;DHT22;61854;48.510;-2.770;2023-04-24T05:34:15;8.20;97.20
73572;DHT22;61854;48.510;-2.770;2023-04-24T05:36:42;8.30;97.30
73572;DHT22;61854;48.510;-2.770;2023-04-24T05:39:08;8.40;97.00
73572;DHT22;61854;48.510;-2.770;2023-04-24T05:41:34;8.40;97.20
73572;DHT22;61854;48.510;-2.770;2023-04-24T05:43:59;8.40;96.90
73572;DHT22;61854;48.510;-2.770;2023-04-24T05:46:25;8.60;96.80
73572;DHT22;61854;48.510;-2.770;2023-04-24T05:48:50;8.90;96.40
73572;DHT22;61854;48.510;-2.770;2023-04-24T05:51:16;9.00;95.40
73572;DHT22;61854;48.510;-2.770;2023-04-24T05:53:41;9.00;94.90
73572;DHT22;61854;48.510;-2.770;2023-04-24T05:56:07;8.90;94.80
73572;DHT22;61854;48.510;-2.770;2023-04-24T05:58:33;8.90;94.80
73572;DHT22;61854;48.510;-2.770;2023-04-24T06:00:58;8.90;94.80
73572;DHT22;61854;48.510;-2.770;2023-04-24T06:03:26;8.90;94.80
73572;DHT22;61854;48.510;-2.770;2023-04-24T06:05:52;8.90;94.80
73572;DHT22;61854;48.510;-2.770;2023-04-24T06:08:18;8.90;94.70
73572;DHT22;61854;48.510;-2.770;2023-04-24T06:10:43;9.00;94.80
73572;DHT22;61854;48.510;-2.770;2023-04-24T06:13:09;9.00;94.80
73572;DHT22;61854;48.510;-2.770;2023-04-24T06:15:35;9.00;94.70
73572;DHT22;61854;48.510;-2.770;2023-04-24T06:18:00;9.10;94.80
73572;DHT22;61854;48.510;-2.770;2023-04-24T06:20:26;9.20;94.60
73572;DHT22;61854;48.510;-2.770;2023-04-24T06:22:51;9.20;94.40
73572;DHT22;61854;48.510;-2.770;2023-04-24T06:25:17;9.30;94.30
73572;DHT22;61854;48.510;-2.770;2023-04-24T06:27:43;9.50;94.20
73572;DHT22;61854;48.510;-2.770;2023-04-24T06:30:08;9.60;94.10
73572;DHT22;61854;48.510;-2.770;2023-04-24T06:32:34;9.60;94.10
73572;DHT22;61854;48.510;-2.770;2023-04-24T06:35:00;9.80;93.90
73572;DHT22;61854;48.510;-2.770;2023-04-24T06:37:25;10.10;93.40
73572;DHT22;61854;48.510;-2.770;2023-04-24T06:39:51;10.50;92.80
73572;DHT22;61854;48.510;-2.770;2023-04-24T06:42:16;10.70;92.00
73572;DHT22;61854;48.510;-2.770;2023-04-24T06:44:42;11.00;91.40
73572;DHT22;61854;48.510;-2.770;2023-04-24T06:47:08;11.30;90.60
73572;DHT22;61854;48.510;-2.770;2023-04-24T06:49:34;11.40;89.90
73572;DHT22;61854;48.510;-2.770;2023-04-24T06:52:00;11.50;89.40
73572;DHT22;61854;48.510;-2.770;2023-04-24T06:54:25;11.40;89.70
73572;DHT22;61854;48.510;-2.770;2023-04-24T06:56:51;11.20;90.20
73572;DHT22;61854;48.510;-2.770;2023-04-24T06:59:17;11.00;90.70
73572;DHT22;61854;48.510;-2.770;2023-04-24T07:01:43;10.90;90.90
73572;DHT22;61854;48.510;-2.770;2023-04-24T07:04:08;10.70;91.30
73572;DHT22;61854;48.510;-2.770;2023-04-24T07:06:34;10.70;91.60
73572;DHT22;61854;48.510;-2.770;2023-04-24T07:09:01;10.60;92.00
73572;DHT22;61854;48.510;-2.770;2023-04-24T07:11:26;10.60;92.40
73572;DHT22;61854;48.510;-2.770;2023-04-24T07:13:54;10.60;92.50
73572;DHT22;61854;48.510;-2.770;2023-04-24T07:16:20;10.60;92.60
73572;DHT22;61854;48.510;-2.770;2023-04-24T07:18:45;10.60;92.60
73572;DHT22;61854;48.510;-2.770;2023-04-24T07:21:11;10.70;92.70
73572;DHT22;61854;48.510;-2.770;2023-04-24T07:23:37;10.70;93.00
73572;DHT22;61854;48.510;-2.770;2023-04-24T07:26:02;10.70;93.00
73572;DHT22;61854;48.510;-2.770;2023-04-24T07:28:28;10.70;92.80
73572;DHT22;61854;48.510;-2.770;2023-04-24T07:30:56;10.80;92.80
73572;DHT22;61854;48.510;-2.770;2023-04-24T07:33:22;10.80;92.60
73572;DHT22;61854;48.510;-2.770;2023-04-24T07:35:48;10.90;92.60
73572;DHT22;61854;48.510;-2.770;2023-04-24T07:38:13;10.90;92.50
73572;DHT22;61854;48.510;-2.770;2023-04-24T07:40:39;11.00;92.20
73572;DHT22;61854;48.510;-2.770;2023-04-24T07:43:05;11.00;92.00
73572;DHT22;61854;48.510;-2.770;2023-04-24T07:45:30;11.10;91.80
73572;DHT22;61854;48.510;-2.770;2023-04-24T07:47:56;11.10;91.90
73572;DHT22;61854;48.510;-2.770;2023-04-24T07:50:22;11.20;91.50
73572;DHT22;61854;48.510;-2.770;2023-04-24T07:52:47;11.30;91.30
73572;DHT22;61854;48.510;-2.770;2023-04-24T07:55:13;11.30;91.20
73572;DHT22;61854;48.510;-2.770;2023-04-24T07:57:38;11.40;91.00
73572;DHT22;61854;48.510;-2.770;2023-04-24T08:00:05;11.50;90.60
73572;DHT22;61854;48.510;-2.770;2023-04-24T08:02:31;11.50;88.40
73572;DHT22;61854;48.510;-2.770;2023-04-24T08:04:57;11.60;86.50
73572;DHT22;61854;48.510;-2.770;2023-04-24T08:07:23;11.60;86.40
73572;DHT22;61854;48.510;-2.770;2023-04-24T08:09:48;11.60;86.50
73572;DHT22;61854;48.510;-2.770;2023-04-24T08:12:14;11.70;86.10
73572;DHT22;61854;48.510;-2.770;2023-04-24T08:14:41;11.80;85.60
73572;DHT22;61854;48.510;-2.770;2023-04-24T08:17:10;11.90;85.60
73572;DHT22;61854;48.510;-2.770;2023-04-24T08:19:40;12.00;85.00
73572;DHT22;61854;48.510;-2.770;2023-04-24T08:22:14;12.00;84.50
73572;DHT22;61854;48.510;-2.770;2023-04-24T08:24:43;12.00;84.60
73572;DHT22;61854;48.510;-2.770;2023-04-24T08:27:10;12.10;84.80
73572;DHT22;61854;48.510;-2.770;2023-04-24T08:29:38;12.20;83.30
73572;DHT22;61854;48.510;-2.770;2023-04-24T08:32:03;12.20;83.70
73572;DHT22;61854;48.510;-2.770;2023-04-24T08:34:29;12.20;83.40
73572;DHT22;61854;48.510;-2.770;2023-04-24T08:36:54;12.20;83.90
73572;DHT22;61854;48.510;-2.770;2023-04-24T08:39:20;12.10;84.60
73572;DHT22;61854;48.510;-2.770;2023-04-24T08:41:45;12.20;84.70
73572;DHT22;61854;48.510;-2.770;2023-04-24T08:44:13;12.20;82.70
73572;DHT22;61854;48.510;-2.770;2023-04-24T08:46:40;12.20;82.10
73572;DHT22;61854;48.510;-2.770;2023-04-24T08:49:07;12.20;82.10
73572;DHT22;61854;48.510;-2.770;2023-04-24T08:51:33;12.30;82.00
73572;DHT22;61854;48.510;-2.770;2023-04-24T08:53:58;12.30;81.60
73572;DHT22;61854;48.510;-2.770;2023-04-24T08:56:24;12.40;82.00
73572;DHT22;61854;48.510;-2.770;2023-04-24T08:58:51;12.40;81.50
73572;DHT22;61854;48.510;-2.770;2023-04-24T09:01:18;12.50;80.50
73572;DHT22;61854;48.510;-2.770;2023-04-24T09:03:43;12.50;79.60
73572;DHT22;61854;48.510;-2.770;2023-04-24T09:06:10;12.60;79.40
73572;DHT22;61854;48.510;-2.770;2023-04-24T09:08:36;12.60;78.60
73572;DHT22;61854;48.510;-2.770;2023-04-24T09:11:03;12.60;79.40
73572;DHT22;61854;48.510;-2.770;2023-04-24T09:13:30;12.60;80.00
73572;DHT22;61854;48.510;-2.770;2023-04-24T09:15:55;12.70;79.50
73572;DHT22;61854;48.510;-2.770;2023-04-24T09:18:22;12.80;80.00
73572;DHT22;61854;48.510;-2.770;2023-04-24T09:20:58;12.90;78.60
73572;DHT22;61854;48.510;-2.770;2023-04-24T09:23:25;12.90;77.80
73572;DHT22;61854;48.510;-2.770;2023-04-24T09:25:53;13.00;77.60
73572;DHT22;61854;48.510;-2.770;2023-04-24T09:28:22;13.20;75.80
73572;DHT22;61854;48.510;-2.770;2023-04-24T09:31:01;13.30;75.40
73572;DHT22;61854;48.510;-2.770;2023-04-24T09:33:27;13.50;74.10
73572;DHT22;61854;48.510;-2.770;2023-04-24T09:35:52;13.60;73.00
73572;DHT22;61854;48.510;-2.770;2023-04-24T09:38:18;13.70;72.10
73572;DHT22;61854;48.510;-2.770;2023-04-24T09:40:43;13.90;70.30
73572;DHT22;61854;48.510;-2.770;2023-04-24T09:43:12;14.00;69.30
73572;DHT22;61854;48.510;-2.770;2023-04-24T09:45:38;14.00;65.70
73572;DHT22;61854;48.510;-2.770;2023-04-24T09:48:04;14.00;67.40
73572;DHT22;61854;48.510;-2.770;2023-04-24T09:50:31;14.00;65.70
73572;DHT22;61854;48.510;-2.770;2023-04-24T09:53:04;14.00;65.40
73572;DHT22;61854;48.510;-2.770;2023-04-24T09:55:30;14.00;65.10
73572;DHT22;61854;48.510;-2.770;2023-04-24T09:57:57;13.90;64.60
73572;DHT22;61854;48.510;-2.770;2023-04-24T10:00:27;13.90;65.20
73572;DHT22;61854;48.510;-2.770;2023-04-24T10:05:25;14.10;63.90
73572;DHT22;61854;48.510;-2.770;2023-04-24T10:07:55;14.10;64.80
73572;DHT22;61854;48.510;-2.770;2023-04-24T10:10:21;14.10;65.20
73572;DHT22;61854;48.510;-2.770;2023-04-24T10:12:47;14.20;63.70
73572;DHT22;61854;48.510;-2.770;2023-04-24T10:15:12;14.30;61.80
73572;DHT22;61854;48.510;-2.770;2023-04-24T10:17:39;14.30;63.70
73572;DHT22;61854;48.510;-2.770;2023-04-24T10:20:05;14.40;63.60
73572;DHT22;61854;48.510;-2.770;2023-04-24T10:22:32;14.40;63.00
73572;DHT22;61854;48.510;-2.770;2023-04-24T10:24:58;14.50;61.10
73572;DHT22;61854;48.510;-2.770;2023-04-24T10:27:24;14.50;62.10
73572;DHT22;61854;48.510;-2.770;2023-04-24T10:29:51;14.50;62.00
73572;DHT22;61854;48.510;-2.770;2023-04-24T10:32:18;14.40;63.10
73572;DHT22;61854;48.510;-2.770;2023-04-24T10:34:43;14.30;64.40
73572;DHT22;61854;48.510;-2.770;2023-04-24T10:37:09;14.20;64.10
73572;DHT22;61854;48.510;-2.770;2023-04-24T10:39:35;14.10;66.60
73572;DHT22;61854;48.510;-2.770;2023-04-24T10:42:13;13.90;65.70
73572;DHT22;61854;48.510;-2.770;2023-04-24T10:44:40;13.80;67.20
73572;DHT22;61854;48.510;-2.770;2023-04-24T10:47:05;13.80;68.80
73572;DHT22;61854;48.510;-2.770;2023-04-24T10:49:37;13.80;70.30
73572;DHT22;61854;48.510;-2.770;2023-04-24T10:52:03;14.10;69.00
73572;DHT22;61854;48.510;-2.770;2023-04-24T10:54:35;14.30;69.70
73572;DHT22;61854;48.510;-2.770;2023-04-24T10:57:34;14.30;68.10
73572;DHT22;61854;48.510;-2.770;2023-04-24T11:02:38;14.40;69.40
73572;DHT22;61854;48.510;-2.770;2023-04-24T11:05:04;14.40;67.60
73572;DHT22;61854;48.510;-2.770;2023-04-24T11:07:30;14.30;67.90
73572;DHT22;61854;48.510;-2.770;2023-04-24T11:09:58;14.20;68.30
73572;DHT22;61854;48.510;-2.770;2023-04-24T11:12:26;14.20;68.40
73572;DHT22;61854;48.510;-2.770;2023-04-24T11:17:33;14.10;70.00
73572;DHT22;61854;48.510;-2.770;2023-04-24T11:20:05;14.10;68.70
73572;DHT22;61854;48.510;-2.770;2023-04-24T11:22:33;13.90;70.80
73572;DHT22;61854;48.510;-2.770;2023-04-24T11:24:59;13.70;73.10
73572;DHT22;61854;48.510;-2.770;2023-04-24T11:27:28;13.70;74.00
73572;DHT22;61854;48.510;-2.770;2023-04-24T11:34:55;14.10;71.50
73572;DHT22;61854;48.510;-2.770;2023-04-24T11:37:22;14.30;70.70
73572;DHT22;61854;48.510;-2.770;2023-04-24T11:39:50;14.40;69.40
73572;DHT22;61854;48.510;-2.770;2023-04-24T11:42:15;14.50;68.40
73572;DHT22;61854;48.510;-2.770;2023-04-24T11:44:42;14.50;69.00
73572;DHT22;61854;48.510;-2.770;2023-04-24T11:47:07;14.60;69.80
73572;DHT22;61854;48.510;-2.770;2023-04-24T11:49:33;14.60;70.50
73572;DHT22;61854;48.510;-2.770;2023-04-24T11:52:08;14.70;71.10
73572;DHT22;61854;48.510;-2.770;2023-04-24T11:54:33;14.80;71.30
73572;DHT22;61854;48.510;-2.770;2023-04-24T11:56:59;14.80;68.70
73572;DHT22;61854;48.510;-2.770;2023-04-24T11:59:28;14.80;68.30
73572;DHT22;61854;48.510;-2.770;2023-04-24T12:01:54;14.80;67.70
73572;DHT22;61854;48.510;-2.770;2023-04-24T12:04:19;14.80;68.00
73572;DHT22;61854;48.510;-2.770;2023-04-24T12:07:04;14.80;67.90
73572;DHT22;61854;48.510;-2.770;2023-04-24T12:12:08;14.80;69.90
73572;DHT22;61854;48.510;-2.770;2023-04-24T12:14:41;14.80;68.00
73572;DHT22;61854;48.510;-2.770;2023-04-24T12:17:07;14.80;67.60
73572;DHT22;61854;48.510;-2.770;2023-04-24T12:19:32;14.80;67.70
73572;DHT22;61854;48.510;-2.770;2023-04-24T12:22:02;14.90;67.40
73572;DHT22;61854;48.510;-2.770;2023-04-24T12:24:28;14.90;67.50
73572;DHT22;61854;48.510;-2.770;2023-04-24T12:26:53;14.90;67.10
73572;DHT22;61854;48.510;-2.770;2023-04-24T12:29:20;15.00;68.50
73572;DHT22;61854;48.510;-2.770;2023-04-24T12:31:45;15.00;68.40
73572;DHT22;61854;48.510;-2.770;2023-04-24T12:34:25;15.10;66.20
73572;DHT22;61854;48.510;-2.770;2023-04-24T12:36:50;15.20;65.40
73572;DHT22;61854;48.510;-2.770;2023-04-24T12:39:16;15.10;66.80
73572;DHT22;61854;48.510;-2.770;2023-04-24T12:44:28;15.20;66.00
73572;DHT22;61854;48.510;-2.770;2023-04-24T12:46:54;15.30;65.10
73572;DHT22;61854;48.510;-2.770;2023-04-24T12:49:19;15.40;65.20
73572;DHT22;61854;48.510;-2.770;2023-04-24T12:51:45;15.40;65.30
73572;DHT22;61854;48.510;-2.770;2023-04-24T12:54:10;15.40;65.40
73572;DHT22;61854;48.510;-2.770;2023-04-24T12:56:37;15.40;65.20
73572;DHT22;61854;48.510;-2.770;2023-04-24T12:59:05;15.30;64.70
73572;DHT22;61854;48.510;-2.770;2023-04-24T13:01:30;15.30;66.00
73572;DHT22;61854;48.510;-2.770;2023-04-24T13:03:56;15.30;67.00
73572;DHT22;61854;48.510;-2.770;2023-04-24T13:06:21;15.40;65.70
73572;DHT22;61854;48.510;-2.770;2023-04-24T13:08:47;15.50;64.40
73572;DHT22;61854;48.510;-2.770;2023-04-24T13:11:13;15.80;63.10
73572;DHT22;61854;48.510;-2.770;2023-04-24T13:13:39;16.20;63.10
73572;DHT22;61854;48.510;-2.770;2023-04-24T13:16:05;16.50;62.20
73572;DHT22;61854;48.510;-2.770;2023-04-24T13:18:30;17.00;60.30
73572;DHT22;61854;48.510;-2.770;2023-04-24T13:20:56;17.50;58.50
73572;DHT22;61854;48.510;-2.770;2023-04-24T13:23:22;17.60;57.90
73572;DHT22;61854;48.510;-2.770;2023-04-24T13:25:48;17.40;57.30
73572;DHT22;61854;48.510;-2.770;2023-04-24T13:28:14;16.90;58.30
73572;DHT22;61854;48.510;-2.770;2023-04-24T13:30:40;16.50;60.40
73572;DHT22;61854;48.510;-2.770;2023-04-24T13:33:05;16.20;61.50
73572;DHT22;61854;48.510;-2.770;2023-04-24T13:35:31;15.90;63.20
73572;DHT22;61854;48.510;-2.770;2023-04-24T13:37:57;15.70;64.40
73572;DHT22;61854;48.510;-2.770;2023-04-24T13:40:22;15.50;67.00
73572;DHT22;61854;48.510;-2.770;2023-04-24T13:42:48;15.20;69.40
73572;DHT22;61854;48.510;-2.770;2023-04-24T13:45:14;15.00;69.20
73572;DHT22;61854;48.510;-2.770;2023-04-24T13:47:39;14.80;69.90
73572;DHT22;61854;48.510;-2.770;2023-04-24T13:50:09;14.60;72.20
73572;DHT22;61854;48.510;-2.770;2023-04-24T13:52:35;14.30;78.70
73572;DHT22;61854;48.510;-2.770;2023-04-24T13:55:00;14.00;81.80
73572;DHT22;61854;48.510;-2.770;2023-04-24T13:57:26;13.70;85.20
73572;DHT22;61854;48.510;-2.770;2023-04-24T13:59:53;13.50;86.80
73572;DHT22;61854;48.510;-2.770;2023-04-24T14:02:20;13.20;89.50
73572;DHT22;61854;48.510;-2.770;2023-04-24T14:04:46;13.10;91.10
73572;DHT22;61854;48.510;-2.770;2023-04-24T14:07:13;13.40;93.20
73572;DHT22;61854;48.510;-2.770;2023-04-24T14:09:39;13.70;92.50
73572;DHT22;61854;48.510;-2.770;2023-04-24T14:12:04;14.20;91.70
73572;DHT22;61854;48.510;-2.770;2023-04-24T14:14:30;14.90;91.50
73572;DHT22;61854;48.510;-2.770;2023-04-24T14:16:56;15.40;87.60
73572;DHT22;61854;48.510;-2.770;2023-04-24T14:19:22;15.60;82.80
73572;DHT22;61854;48.510;-2.770;2023-04-24T14:21:47;15.40;82.00
73572;DHT22;61854;48.510;-2.770;2023-04-24T14:24:13;15.00;81.90
73572;DHT22;61854;48.510;-2.770;2023-04-24T14:26:38;14.80;83.00
73572;DHT22;61854;48.510;-2.770;2023-04-24T14:29:04;14.70;83.00
73572;DHT22;61854;48.510;-2.770;2023-04-24T14:31:30;14.80;81.80
73572;DHT22;61854;48.510;-2.770;2023-04-24T14:33:56;14.90;81.70
73572;DHT22;61854;48.510;-2.770;2023-04-24T14:36:21;15.00;79.50
73572;DHT22;61854;48.510;-2.770;2023-04-24T14:38:47;15.00;76.70
73572;DHT22;61854;48.510;-2.770;2023-04-24T14:41:12;15.00;76.40
73572;DHT22;61854;48.510;-2.770;2023-04-24T14:43:38;14.80;76.30
73572;DHT22;61854;48.510;-2.770;2023-04-24T14:46:04;14.70;78.00
73572;DHT22;61854;48.510;-2.770;2023-04-24T14:48:29;14.60;79.20
73572;DHT22;61854;48.510;-2.770;2023-04-24T14:50:55;14.30;77.90
73572;DHT22;61854;48.510;-2.770;2023-04-24T14:53:21;14.10;79.40
73572;DHT22;61854;48.510;-2.770;2023-04-24T14:55:46;14.00;80.00
73572;DHT22;61854;48.510;-2.770;2023-04-24T14:58:12;13.90;81.10
73572;DHT22;61854;48.510;-2.770;2023-04-24T15:00:37;14.30;83.80
73572;DHT22;61854;48.510;-2.770;2023-04-24T15:03:03;15.20;79.20
73572;DHT22;61854;48.510;-2.770;2023-04-24T15:05:28;16.20;76.20
73572;DHT22;61854;48.510;-2.770;2023-04-24T15:07:55;16.50;71.30
73572;DHT22;61854;48.510;-2.770;2023-04-24T15:10:21;16.30;70.00
73572;DHT22;61854;48.510;-2.770;2023-04-24T15:12:48;15.90;70.40
73572;DHT22;61854;48.510;-2.770;2023-04-24T15:15:13;15.60;71.40
73572;DHT22;61854;48.510;-2.770;2023-04-24T15:17:39;15.20;72.70
73572;DHT22;61854;48.510;-2.770;2023-04-24T15:20:05;14.90;73.00
73572;DHT22;61854;48.510;-2.770;2023-04-24T15:22:31;14.70;74.90
73572;DHT22;61854;48.510;-2.770;2023-04-24T15:24:57;14.50;75.60
73572;DHT22;61854;48.510;-2.770;2023-04-24T15:27:22;14.70;76.10
73572;DHT22;61854;48.510;-2.770;2023-04-24T15:29:48;15.10;75.10
73572;DHT22;61854;48.510;-2.770;2023-04-24T15:32:13;15.60;72.10